Time;durP1;ratioP1;P1;durP2;ratioP2;P2;SDS_P1;SDS_P2;PMS_P1;PMS_P2;Temp;Humidity;BMP_temperature;BMP_pressure;BME280_temperature;BME280_humidity;BME280_pressure;Samples;Min_cycle;Max_cycle;Signal;HPM_P1;HPM_P2
2021/12/29 00:01:20;;;;;;;0.20;0.03;;;;;;;;;;4963845;28;20672;-69
2021/12/29 00:03:48;;;;;;;0.13;0.13;;;;;;;;;;4963793;28;20195;-69
2021/12/29 00:06:15;;;;;;;0.53;0.40;;;;;;;;;;4964972;28;20206;-69
2021/12/29 00:08:43;;;;;;;1.13;0.67;;;;;;;;;;4966293;28;20668;-68
2021/12/29 00:11:11;;;;;;;2.20;1.43;;;;;;;;;;4964882;28;20675;-69
2021/12/29 00:13:38;;;;;;;0.33;0.33;;;;;;;;;;4964449;28;20550;-69
2021/12/29 00:16:07;;;;;;;0.20;0.20;;;;;;;;;;4962510;28;20218;-70
2021/12/29 00:18:36;;;;;;;0.70;0.63;;;;;;;;;;4966247;28;20203;-71
2021/12/29 00:21:05;;;;;;;1.50;0.97;;;;;;;;;;4961349;28;20698;-70
2021/12/29 00:23:32;;;;;;;0.53;0.53;;;;;;;;;;4965277;28;20203;-68
2021/12/29 00:25:59;;;;;;;1.27;1.03;;;;;;;;;;4965569;28;20206;-69
2021/12/29 00:28:27;;;;;;;2.73;1.27;;;;;;;;;;4966520;28;20203;-70
2021/12/29 00:30:54;;;;;;;0.53;0.53;;;;;;;;;;4963896;28;20722;-69
2021/12/29 00:33:23;;;;;;;1.73;0.90;;;;;;;;;;4964172;28;21017;-70
2021/12/29 00:35:51;;;;;;;1.23;1.13;;;;;;;;;;4964074;28;20975;-70
2021/12/29 00:38:18;;;;;;;0.33;0.33;;;;;;;;;;4963748;28;20210;-69
2021/12/29 00:40:45;;;;;;;0.60;0.60;;;;;;;;;;4963402;28;20217;-68
2021/12/29 00:43:13;;;;;;;2.20;1.00;;;;;;;;;;4964199;28;20203;-69
2021/12/29 00:45:41;;;;;;;0.63;0.63;;;;;;;;;;4965371;28;20195;-69
2021/12/29 00:48:12;;;;;;;0.33;0.33;;;;;;;;;;4963353;28;20209;-67
2021/12/29 00:50:42;;;;;;;0.13;0.13;;;;;;;;;;4965854;28;20234;-68
2021/12/29 00:53:09;;;;;;;0.83;0.73;;;;;;;;;;4964995;28;20221;-67
2021/12/29 00:55:37;;;;;;;0.87;0.30;;;;;;;;;;4963820;28;20611;-68
2021/12/29 00:58:07;;;;;;;0.33;0.33;;;;;;;;;;4964597;28;20237;-69
2021/12/29 01:00:37;;;;;;;0.10;0.10;;;;;;;;;;4963984;28;20202;-69
2021/12/29 01:03:04;;;;;;;0.40;0.33;;;;;;;;;;4964788;28;20202;-67
2021/12/29 01:05:32;;;;;;;0.03;0.00;;;;;;;;;;4964337;28;20645;-70
2021/12/29 01:08:01;;;;;;;0.77;0.77;;;;;;;;;;4964878;28;20221;-68
2021/12/29 01:10:28;;;;;;;0.67;0.67;;;;;;;;;;4965639;28;20703;-67
2021/12/29 01:12:59;;;;;;;1.30;1.20;;;;;;;;;;4962309;28;20202;-70
2021/12/29 01:15:32;;;;;;;1.37;0.83;;;;;;;;;;4961732;28;20221;-69
2021/12/29 01:18:01;;;;;;;0.40;0.40;;;;;;;;;;4963213;28;20237;-67
2021/12/29 01:20:29;;;;;;;0.60;0.60;;;;;;;;;;4962550;28;20213;-69
2021/12/29 01:22:58;;;;;;;4.00;0.73;;;;;;;;;;4961328;28;20214;-69
2021/12/29 01:25:28;;;;;;;0.77;0.77;;;;;;;;;;4965126;28;20832;-69
2021/12/29 01:27:56;;;;;;;0.00;0.00;;;;;;;;;;4963035;28;20210;-69
2021/12/29 01:30:24;;;;;;;0.00;0.00;;;;;;;;;;4964254;28;20226;-70
2021/12/29 01:32:51;;;;;;;3.93;2.57;;;;;;;;;;4964138;28;20209;-69
2021/12/29 01:35:19;;;;;;;0.03;0.03;;;;;;;;;;4963627;28;20213;-69
2021/12/29 01:37:46;;;;;;;0.30;0.30;;;;;;;;;;4964945;28;20207;-68
2021/12/29 01:40:15;;;;;;;0.20;0.20;;;;;;;;;;4961732;28;20222;-68
2021/12/29 01:42:44;;;;;;;0.10;0.10;;;;;;;;;;4965906;28;20207;-68
2021/12/29 01:45:13;;;;;;;0.43;0.43;;;;;;;;;;4961643;28;20209;-68
2021/12/29 01:47:40;;;;;;;2.03;1.03;;;;;;;;;;4961177;28;20248;-69
2021/12/29 01:50:09;;;;;;;0.20;0.20;;;;;;;;;;4961169;28;20905;-69
2021/12/29 01:52:38;;;;;;;0.93;0.93;;;;;;;;;;4964384;28;20293;-68
2021/12/29 01:55:07;;;;;;;0.00;0.00;;;;;;;;;;4960209;28;20325;-69
2021/12/29 01:57:34;;;;;;;0.20;0.20;;;;;;;;;;4963453;28;20286;-70
2021/12/29 02:00:05;;;;;;;0.13;0.13;;;;;;;;;;4964823;28;21080;-68
2021/12/29 02:02:33;;;;;;;0.07;0.00;;;;;;;;;;4965026;28;20213;-69
2021/12/29 02:05:00;;;;;;;2.13;0.20;;;;;;;;;;4963010;28;20243;-69
2021/12/29 02:07:28;;;;;;;3.30;1.10;;;;;;;;;;4963353;28;20202;-68
2021/12/29 02:09:56;;;;;;;0.00;0.00;;;;;;;;;;4963771;28;20340;-69
2021/12/29 02:12:23;;;;;;;0.43;0.13;;;;;;;;;;4961898;28;20215;-69
2021/12/29 02:14:51;;;;;;;0.30;0.27;;;;;;;;;;4960848;28;20206;-68
2021/12/29 02:17:20;;;;;;;0.93;0.33;;;;;;;;;;4962634;28;20199;-69
2021/12/29 02:19:48;;;;;;;0.30;0.13;;;;;;;;;;4962239;28;20214;-70
2021/12/29 02:22:31;;;;;;;0.40;0.37;;;;;;;;;;4962399;28;20202;-68
2021/12/29 02:25:19;;;;;;;3.70;0.63;;;;;;;;;;4961592;28;20885;-69
2021/12/29 02:27:46;;;;;;;0.27;0.27;;;;;;;;;;4962947;28;20558;-69
2021/12/29 02:30:14;;;;;;;0.93;0.93;;;;;;;;;;4964304;28;20638;-69
2021/12/29 02:32:42;;;;;;;0.00;0.00;;;;;;;;;;4962847;28;20209;-69
2021/12/29 02:35:09;;;;;;;0.00;0.00;;;;;;;;;;4963152;28;20497;-68
2021/12/29 02:37:38;;;;;;;0.00;0.00;;;;;;;;;;4963331;28;20215;-69
2021/12/29 02:40:06;;;;;;;0.10;0.10;;;;;;;;;;4961309;28;21471;-69
2021/12/29 02:42:40;;;;;;;2.03;0.30;;;;;;;;;;4964669;28;20785;-68
2021/12/29 02:45:08;;;;;;;0.10;0.10;;;;;;;;;;4964245;28;20210;-69
2021/12/29 02:47:35;;;;;;;0.00;0.00;;;;;;;;;;4961898;28;22105;-69
2021/12/29 02:50:03;;;;;;;0.30;0.30;;;;;;;;;;4964146;28;20256;-69
2021/12/29 02:52:31;;;;;;;0.20;0.20;;;;;;;;;;4963843;28;20213;-69
2021/12/29 02:55:00;;;;;;;0.10;0.10;;;;;;;;;;4961537;28;20234;-69
2021/12/29 02:57:28;;;;;;;0.43;0.23;;;;;;;;;;4961891;28;20860;-69
2021/12/29 02:59:55;;;;;;;0.37;0.37;;;;;;;;;;4964130;28;20221;-70
2021/12/29 03:02:23;;;;;;;0.00;0.00;;;;;;;;;;4962612;28;20206;-69
2021/12/29 03:04:50;;;;;;;0.07;0.07;;;;;;;;;;4963021;28;20210;-70
2021/12/29 03:07:17;;;;;;;0.03;0.03;;;;;;;;;;4962737;28;20265;-70
2021/12/29 03:09:45;;;;;;;0.77;0.77;;;;;;;;;;4964046;28;20213;-68
2021/12/29 03:12:14;;;;;;;1.70;1.60;;;;;;;;;;4961329;28;20210;-68
2021/12/29 03:14:50;;;;;;;0.40;0.40;;;;;;;;;;4963348;28;20257;-68
2021/12/29 03:17:19;;;;;;;0.10;0.10;;;;;;;;;;4960952;28;20210;-69
2021/12/29 03:19:47;;;;;;;0.00;0.00;;;;;;;;;;4962818;28;20664;-69
2021/12/29 03:22:14;;;;;;;0.27;0.20;;;;;;;;;;4961800;28;20214;-69
2021/12/29 03:24:42;;;;;;;0.00;0.00;;;;;;;;;;4964698;28;20680;-69
2021/12/29 03:27:09;;;;;;;0.00;0.00;;;;;;;;;;4965694;28;20199;-69
2021/12/29 03:29:38;;;;;;;0.33;0.33;;;;;;;;;;4966349;28;20211;-69
2021/12/29 03:32:08;;;;;;;0.10;0.10;;;;;;;;;;4965126;28;20206;-69
2021/12/29 03:34:36;;;;;;;0.00;0.00;;;;;;;;;;4967401;28;20574;-68
2021/12/29 03:37:04;;;;;;;0.10;0.10;;;;;;;;;;4965808;28;20202;-69
2021/12/29 03:39:38;;;;;;;0.00;0.00;;;;;;;;;;4963338;28;21623;-68
2021/12/29 03:42:06;;;;;;;0.00;0.00;;;;;;;;;;4965935;28;20688;-69
2021/12/29 03:44:34;;;;;;;0.10;0.10;;;;;;;;;;4966590;28;20211;-69
2021/12/29 03:47:02;;;;;;;0.00;0.00;;;;;;;;;;4964129;28;20202;-69
2021/12/29 03:49:30;;;;;;;0.00;0.00;;;;;;;;;;4965691;28;20289;-69
2021/12/29 03:51:58;;;;;;;0.10;0.10;;;;;;;;;;4966951;28;20572;-68
2021/12/29 03:54:26;;;;;;;0.00;0.00;;;;;;;;;;4964456;28;20270;-69
2021/12/29 03:56:53;;;;;;;0.00;0.00;;;;;;;;;;4965942;28;20292;-69
2021/12/29 03:59:21;;;;;;;0.00;0.00;;;;;;;;;;4964786;28;20206;-69
2021/12/29 04:01:50;;;;;;;0.00;0.00;;;;;;;;;;4966574;28;20674;-68
2021/12/29 04:04:20;;;;;;;0.10;0.10;;;;;;;;;;4963333;28;20306;-69
2021/12/29 04:06:47;;;;;;;0.00;0.00;;;;;;;;;;4964609;28;20209;-69
2021/12/29 04:09:15;;;;;;;0.00;0.00;;;;;;;;;;4965396;28;20186;-69
2021/12/29 04:11:43;;;;;;;0.00;0.00;;;;;;;;;;4966912;28;20369;-69
2021/12/29 04:14:10;;;;;;;0.00;0.00;;;;;;;;;;4964667;28;20653;-68
2021/12/29 04:16:41;;;;;;;0.10;0.10;;;;;;;;;;4966679;28;20808;-69
2021/12/29 04:19:17;;;;;;;0.00;0.00;;;;;;;;;;4964571;28;20210;-68
2021/12/29 04:21:47;;;;;;;0.00;0.00;;;;;;;;;;4965461;28;20659;-70
2021/12/29 04:24:15;;;;;;;0.27;0.20;;;;;;;;;;4965334;28;20261;-69
2021/12/29 04:26:43;;;;;;;0.67;0.30;;;;;;;;;;4965307;28;20206;-68
2021/12/29 04:29:13;;;;;;;0.00;0.00;;;;;;;;;;4965253;28;20198;-68
2021/12/29 04:31:40;;;;;;;0.00;0.00;;;;;;;;;;4964861;28;20238;-68
2021/12/29 04:34:08;;;;;;;0.00;0.00;;;;;;;;;;4964215;28;20210;-69
2021/12/29 04:36:35;;;;;;;0.10;0.10;;;;;;;;;;4965973;28;20206;-69
2021/12/29 04:39:06;;;;;;;0.43;0.27;;;;;;;;;;4962510;28;20211;-68
2021/12/29 04:41:34;;;;;;;0.00;0.00;;;;;;;;;;4965879;28;20225;-68
2021/12/29 04:44:01;;;;;;;0.00;0.00;;;;;;;;;;4967128;28;20203;-69
2021/12/29 04:46:37;;;;;;;0.50;0.13;;;;;;;;;;4963562;28;20202;-69
2021/12/29 04:49:05;;;;;;;0.00;0.00;;;;;;;;;;4964911;28;20213;-69
2021/12/29 04:51:36;;;;;;;0.00;0.00;;;;;;;;;;4963542;28;20225;-68
2021/12/29 04:54:07;;;;;;;0.00;0.00;;;;;;;;;;4963413;28;20653;-68
2021/12/29 04:56:34;;;;;;;0.10;0.10;;;;;;;;;;4963600;28;22423;-68
2021/12/29 04:59:02;;;;;;;0.00;0.00;;;;;;;;;;4962455;28;20207;-68
2021/12/29 05:01:32;;;;;;;0.00;0.00;;;;;;;;;;4964174;28;21708;-69
2021/12/29 05:03:59;;;;;;;0.00;0.00;;;;;;;;;;4963568;28;20699;-68
2021/12/29 05:09:13;;;;;;;0.53;0.07;;;;;;;;;;4962453;28;20675;-69
2021/12/29 05:11:40;;;;;;;0.07;0.07;;;;;;;;;;4961882;28;21004;-68
2021/12/29 05:14:07;;;;;;;0.00;0.00;;;;;;;;;;4961237;28;20218;-69
2021/12/29 05:16:35;;;;;;;0.00;0.00;;;;;;;;;;4963374;28;20211;-69
2021/12/29 05:19:02;;;;;;;0.00;0.00;;;;;;;;;;4964269;28;20225;-69
2021/12/29 05:21:30;;;;;;;0.10;0.10;;;;;;;;;;4960449;28;20213;-69
2021/12/29 05:23:57;;;;;;;0.00;0.00;;;;;;;;;;4964523;28;20226;-68
2021/12/29 05:26:26;;;;;;;0.37;0.37;;;;;;;;;;4963486;28;22238;-68
2021/12/29 05:28:53;;;;;;;0.00;0.00;;;;;;;;;;4963726;28;20210;-68
2021/12/29 05:31:21;;;;;;;0.00;0.00;;;;;;;;;;4961482;28;20235;-69
2021/12/29 05:33:48;;;;;;;0.00;0.00;;;;;;;;;;4965631;28;20198;-69
2021/12/29 05:36:16;;;;;;;0.07;0.07;;;;;;;;;;4962589;28;20203;-69
2021/12/29 05:38:43;;;;;;;0.00;0.00;;;;;;;;;;4962828;28;20226;-69
2021/12/29 05:41:10;;;;;;;0.00;0.00;;;;;;;;;;4963153;28;20221;-69
2021/12/29 05:43:39;;;;;;;0.00;0.00;;;;;;;;;;4962880;28;20570;-69
2021/12/29 05:46:07;;;;;;;0.10;0.10;;;;;;;;;;4961544;28;20210;-68
2021/12/29 05:48:34;;;;;;;0.10;0.10;;;;;;;;;;4960577;28;20699;-68
2021/12/29 05:51:02;;;;;;;0.00;0.00;;;;;;;;;;4962793;28;20285;-69
2021/12/29 05:53:29;;;;;;;0.30;0.30;;;;;;;;;;4961308;28;20225;-69
2021/12/29 05:55:57;;;;;;;0.00;0.00;;;;;;;;;;4922695;28;1164397;-69
2021/12/29 05:58:25;;;;;;;0.00;0.00;;;;;;;;;;4962936;28;20220;-70
2021/12/29 06:00:54;;;;;;;0.00;0.00;;;;;;;;;;4963000;28;20207;-68
2021/12/29 06:03:21;;;;;;;0.00;0.00;;;;;;;;;;4962000;28;20245;-67
2021/12/29 06:05:48;;;;;;;0.00;0.00;;;;;;;;;;4963756;28;20276;-70
2021/12/29 06:08:16;;;;;;;0.13;0.07;;;;;;;;;;4963568;28;20206;-68
2021/12/29 06:10:43;;;;;;;0.00;0.00;;;;;;;;;;4965013;28;20206;-69
2021/12/29 06:13:11;;;;;;;0.00;0.00;;;;;;;;;;4962224;28;20206;-69
2021/12/29 06:15:38;;;;;;;0.00;0.00;;;;;;;;;;4962647;28;20198;-70
2021/12/29 06:18:07;;;;;;;0.00;0.00;;;;;;;;;;4962383;28;20214;-69
2021/12/29 06:20:38;;;;;;;0.00;0.00;;;;;;;;;;4960255;28;20243;-68
2021/12/29 06:23:06;;;;;;;0.00;0.00;;;;;;;;;;4964172;28;20206;-71
2021/12/29 06:25:34;;;;;;;0.00;0.00;;;;;;;;;;4962273;28;20202;-70
2021/12/29 06:28:02;;;;;;;0.00;0.00;;;;;;;;;;4963493;28;21005;-67
2021/12/29 06:30:29;;;;;;;0.00;0.00;;;;;;;;;;4963147;28;20199;-70
2021/12/29 06:32:56;;;;;;;0.00;0.00;;;;;;;;;;4961812;28;20238;-68
2021/12/29 06:35:25;;;;;;;0.00;0.00;;;;;;;;;;4961663;28;20209;-69
2021/12/29 06:37:53;;;;;;;0.00;0.00;;;;;;;;;;4962311;28;20302;-68
2021/12/29 06:40:20;;;;;;;0.00;0.00;;;;;;;;;;4961349;28;20225;-68
2021/12/29 06:42:47;;;;;;;0.00;0.00;;;;;;;;;;4962050;28;20218;-69
2021/12/29 06:45:15;;;;;;;0.00;0.00;;;;;;;;;;4961855;28;20234;-70
2021/12/29 06:47:42;;;;;;;0.00;0.00;;;;;;;;;;4962402;28;20733;-68
2021/12/29 06:50:10;;;;;;;0.00;0.00;;;;;;;;;;4963866;28;20667;-69
2021/12/29 06:52:39;;;;;;;0.00;0.00;;;;;;;;;;4961254;28;20726;-69
2021/12/29 06:55:08;;;;;;;0.00;0.00;;;;;;;;;;4961243;28;20234;-69
2021/12/29 06:57:35;;;;;;;0.00;0.00;;;;;;;;;;4964436;28;20206;-69
2021/12/29 07:00:02;;;;;;;0.00;0.00;;;;;;;;;;4963655;28;20679;-68
2021/12/29 07:02:30;;;;;;;0.00;0.00;;;;;;;;;;4966096;28;20898;-68
2021/12/29 07:04:57;;;;;;;0.00;0.00;;;;;;;;;;4967152;28;20194;-68
2021/12/29 07:07:25;;;;;;;0.00;0.00;;;;;;;;;;4966017;28;20201;-69
2021/12/29 07:09:53;;;;;;;1.50;0.50;;;;;;;;;;4968198;28;20560;-69
2021/12/29 07:12:21;;;;;;;0.00;0.00;;;;;;;;;;4965321;28;20237;-68
2021/12/29 07:14:49;;;;;;;0.17;0.17;;;;;;;;;;4965032;28;20218;-69
2021/12/29 07:17:16;;;;;;;0.00;0.00;;;;;;;;;;4965753;28;20221;-69
2021/12/29 07:19:43;;;;;;;0.00;0.00;;;;;;;;;;4966872;28;20229;-70
2021/12/29 07:22:11;;;;;;;0.00;0.00;;;;;;;;;;4966263;28;20214;-69
2021/12/29 07:24:38;;;;;;;0.00;0.00;;;;;;;;;;4967088;28;20209;-68
2021/12/29 07:27:07;;;;;;;0.97;0.97;;;;;;;;;;4966219;28;20206;-69
2021/12/29 07:29:37;;;;;;;0.00;0.00;;;;;;;;;;4967202;28;20209;-69
2021/12/29 07:32:04;;;;;;;0.00;0.00;;;;;;;;;;4965310;28;20233;-68
2021/12/29 07:34:32;;;;;;;0.00;0.00;;;;;;;;;;4961805;28;20203;-69
2021/12/29 07:36:59;;;;;;;0.00;0.00;;;;;;;;;;4967007;28;20206;-68
2021/12/29 07:39:26;;;;;;;0.00;0.00;;;;;;;;;;4964879;28;20213;-68
2021/12/29 07:41:54;;;;;;;0.00;0.00;;;;;;;;;;4964161;28;20214;-68
2021/12/29 07:44:25;;;;;;;0.00;0.00;;;;;;;;;;4965196;28;20238;-69
2021/12/29 07:46:55;;;;;;;0.30;0.30;;;;;;;;;;4967482;28;20214;-68
2021/12/29 07:49:22;;;;;;;0.00;0.00;;;;;;;;;;4965930;28;20211;-68
2021/12/29 07:51:50;;;;;;;0.00;0.00;;;;;;;;;;4964412;28;20237;-68
2021/12/29 07:54:18;;;;;;;0.53;0.40;;;;;;;;;;4965506;28;20211;-69
2021/12/29 07:56:46;;;;;;;0.00;0.00;;;;;;;;;;4966270;28;20211;-69
2021/12/29 07:59:13;;;;;;;0.00;0.00;;;;;;;;;;4966035;28;20210;-69
2021/12/29 08:01:43;;;;;;;0.37;0.37;;;;;;;;;;4965326;28;20237;-69
2021/12/29 08:04:11;;;;;;;0.00;0.00;;;;;;;;;;4967367;28;20277;-69
2021/12/29 08:06:38;;;;;;;0.00;0.00;;;;;;;;;;4964726;28;20210;-70
2021/12/29 08:09:07;;;;;;;0.00;0.00;;;;;;;;;;4966675;28;20210;-69
2021/12/29 08:11:34;;;;;;;0.00;0.00;;;;;;;;;;4964790;28;20300;-69
2021/12/29 08:14:02;;;;;;;0.00;0.00;;;;;;;;;;4964617;28;20226;-69
2021/12/29 08:16:29;;;;;;;0.00;0.00;;;;;;;;;;4964550;28;20214;-71
2021/12/29 08:18:58;;;;;;;0.10;0.10;;;;;;;;;;4966180;28;20209;-67
2021/12/29 08:21:25;;;;;;;0.00;0.00;;;;;;;;;;4963736;28;20195;-69
2021/12/29 08:23:53;;;;;;;0.00;0.00;;;;;;;;;;4963017;28;20695;-70
2021/12/29 08:26:21;;;;;;;0.00;0.00;;;;;;;;;;4969225;28;20217;-69
2021/12/29 08:28:50;;;;;;;0.00;0.00;;;;;;;;;;4968944;28;20198;-70
2021/12/29 08:31:18;;;;;;;0.20;0.20;;;;;;;;;;4968437;28;20207;-70
2021/12/29 08:33:46;;;;;;;0.00;0.00;;;;;;;;;;4968472;28;20569;-70
2021/12/29 08:36:14;;;;;;;0.30;0.23;;;;;;;;;;4969820;28;20211;-69
2021/12/29 08:38:42;;;;;;;0.00;0.00;;;;;;;;;;4968245;28;20206;-70
2021/12/29 08:41:12;;;;;;;0.00;0.00;;;;;;;;;;4966151;28;20217;-68
2021/12/29 08:43:39;;;;;;;0.10;0.10;;;;;;;;;;4966811;28;20333;-70
2021/12/29 08:46:07;;;;;;;0.30;0.30;;;;;;;;;;4968006;28;20594;-70
2021/12/29 08:48:35;;;;;;;0.93;0.40;;;;;;;;;;4967704;28;20218;-71
2021/12/29 08:51:03;;;;;;;0.00;0.00;;;;;;;;;;4968145;28;20207;-70
2021/12/29 08:53:32;;;;;;;0.97;0.20;;;;;;;;;;4967045;28;20261;-71
2021/12/29 08:55:59;;;;;;;1.03;1.03;;;;;;;;;;4966163;28;20222;-70
2021/12/29 08:58:27;;;;;;;0.20;0.20;;;;;;;;;;4964217;28;20562;-71
2021/12/29 09:00:54;;;;;;;1.23;0.77;;;;;;;;;;4967081;28;20205;-70
2021/12/29 09:03:22;;;;;;;0.00;0.00;;;;;;;;;;4964824;28;20211;-70
2021/12/29 09:05:49;;;;;;;0.00;0.00;;;;;;;;;;4969549;28;20213;-69
2021/12/29 09:08:17;;;;;;;0.03;0.03;;;;;;;;;;4968763;28;20217;-70
2021/12/29 09:10:46;;;;;;;0.00;0.00;;;;;;;;;;4967637;28;20202;-70
2021/12/29 09:13:15;;;;;;;0.37;0.37;;;;;;;;;;4960936;28;20328;-69
2021/12/29 09:15:42;;;;;;;0.20;0.20;;;;;;;;;;4963363;28;20672;-69
2021/12/29 09:18:09;;;;;;;0.00;0.00;;;;;;;;;;4967397;28;20648;-70
2021/12/29 09:20:44;;;;;;;0.30;0.30;;;;;;;;;;4961743;28;20573;-70
2021/12/29 09:23:11;;;;;;;0.07;0.07;;;;;;;;;;4962571;28;20556;-70
2021/12/29 09:25:40;;;;;;;0.17;0.17;;;;;;;;;;4959142;28;20288;-70
2021/12/29 09:28:10;;;;;;;0.00;0.00;;;;;;;;;;4958822;28;20673;-70
2021/12/29 09:30:38;;;;;;;0.10;0.10;;;;;;;;;;4959992;28;20209;-70
2021/12/29 09:33:07;;;;;;;0.00;0.00;;;;;;;;;;4960714;28;20230;-70
2021/12/29 09:35:34;;;;;;;0.10;0.10;;;;;;;;;;4960716;28;20210;-69
2021/12/29 09:38:02;;;;;;;1.37;0.87;;;;;;;;;;4961145;28;20206;-69
2021/12/29 09:40:29;;;;;;;0.00;0.00;;;;;;;;;;4959515;28;20211;-69
2021/12/29 09:42:57;;;;;;;2.90;1.47;;;;;;;;;;4960524;28;20221;-71
2021/12/29 09:45:26;;;;;;;0.00;0.00;;;;;;;;;;4958038;28;20206;-70
2021/12/29 09:47:57;;;;;;;0.00;0.00;;;;;;;;;;4959749;28;20272;-68
2021/12/29 09:50:24;;;;;;;0.30;0.30;;;;;;;;;;4959320;28;20667;-68
2021/12/29 09:52:52;;;;;;;0.00;0.00;;;;;;;;;;4968650;28;20233;-70
2021/12/29 09:55:20;;;;;;;0.00;0.00;;;;;;;;;;4969597;28;20234;-70
2021/12/29 09:57:52;;;;;;;0.30;0.30;;;;;;;;;;4972992;28;20205;-67
2021/12/29 10:00:25;;;;;;;2.67;1.00;;;;;;;;;;4969052;28;20251;-69
2021/12/29 10:02:54;;;;;;;0.60;0.60;;;;;;;;;;4967401;28;20575;-69
2021/12/29 10:05:22;;;;;;;1.60;0.20;;;;;;;;;;4970142;28;20215;-69
2021/12/29 10:07:58;;;;;;;0.00;0.00;;;;;;;;;;4970936;28;20253;-71
2021/12/29 10:10:26;;;;;;;0.20;0.20;;;;;;;;;;4963438;28;20216;-70
2021/12/29 10:12:53;;;;;;;0.30;0.30;;;;;;;;;;4969538;28;20718;-69
2021/12/29 10:15:21;;;;;;;0.33;0.00;;;;;;;;;;4968415;28;20652;-70
2021/12/29 10:17:48;;;;;;;0.30;0.30;;;;;;;;;;4971047;28;20198;-70
2021/12/29 10:20:18;;;;;;;0.00;0.00;;;;;;;;;;4968557;28;20205;-71
2021/12/29 10:22:55;;;;;;;0.27;0.27;;;;;;;;;;4962943;28;20222;-69
2021/12/29 10:25:24;;;;;;;0.20;0.20;;;;;;;;;;4962729;28;20217;-69
2021/12/29 10:27:52;;;;;;;0.00;0.00;;;;;;;;;;4964136;28;20199;-70
2021/12/29 10:30:21;;;;;;;0.07;0.07;;;;;;;;;;4967737;28;20221;-69
2021/12/29 10:32:49;;;;;;;3.03;0.63;;;;;;;;;;4965410;28;20233;-70
2021/12/29 10:35:25;;;;;;;0.10;0.10;;;;;;;;;;4969028;28;20222;-69
2021/12/29 10:37:53;;;;;;;1.13;0.27;;;;;;;;;;4970213;28;20209;-69
2021/12/29 10:40:29;;;;;;;0.03;0.03;;;;;;;;;;4971787;28;21729;-69
2021/12/29 10:42:57;;;;;;;0.03;0.00;;;;;;;;;;4971008;28;20222;-70
2021/12/29 10:45:32;;;;;;;0.33;0.33;;;;;;;;;;4969314;28;20215;-71
2021/12/29 10:48:00;;;;;;;0.00;0.00;;;;;;;;;;4969968;28;20275;-67
2021/12/29 10:50:29;;;;;;;0.00;0.00;;;;;;;;;;4967565;28;20210;-69
2021/12/29 10:52:58;;;;;;;0.20;0.20;;;;;;;;;;4963539;28;20253;-68
2021/12/29 10:55:32;;;;;;;0.00;0.00;;;;;;;;;;4969736;28;20317;-70
2021/12/29 10:58:07;;;;;;;0.20;0.00;;;;;;;;;;4970325;28;20237;-69
2021/12/29 11:00:35;;;;;;;0.10;0.10;;;;;;;;;;4966801;28;20209;-70
2021/12/29 11:03:09;;;;;;;0.00;0.00;;;;;;;;;;4967597;28;20238;-68
2021/12/29 11:05:40;;;;;;;0.87;0.47;;;;;;;;;;4967927;28;20571;-69
2021/12/29 11:08:08;;;;;;;0.20;0.20;;;;;;;;;;4962284;28;20576;-68
2021/12/29 11:10:35;;;;;;;0.50;0.50;;;;;;;;;;4969523;28;20684;-70
2021/12/29 11:13:03;;;;;;;0.37;0.37;;;;;;;;;;4968305;28;20237;-68
2021/12/29 11:15:31;;;;;;;0.00;0.00;;;;;;;;;;4970917;28;20198;-69
2021/12/29 11:18:04;;;;;;;0.73;0.73;;;;;;;;;;4969481;28;20293;-69
2021/12/29 11:20:32;;;;;;;0.27;0.27;;;;;;;;;;4969202;28;20202;-69
2021/12/29 11:23:09;;;;;;;1.30;0.60;;;;;;;;;;4976234;28;20306;-69
2021/12/29 11:25:37;;;;;;;0.80;0.50;;;;;;;;;;4969721;28;20205;-67
2021/12/29 11:28:05;;;;;;;1.27;1.17;;;;;;;;;;4969061;28;20198;-70
2021/12/29 11:30:32;;;;;;;0.03;0.03;;;;;;;;;;4974971;28;20664;-71
2021/12/29 11:33:08;;;;;;;0.00;0.00;;;;;;;;;;4969326;28;20238;-67
2021/12/29 11:35:40;;;;;;;0.10;0.10;;;;;;;;;;4969447;28;20208;-67
2021/12/29 11:38:09;;;;;;;0.00;0.00;;;;;;;;;;4968541;28;20272;-70
2021/12/29 11:40:39;;;;;;;0.00;0.00;;;;;;;;;;4964264;28;20206;-69
2021/12/29 11:43:08;;;;;;;0.10;0.10;;;;;;;;;;4971983;28;20206;-68
2021/12/29 11:45:36;;;;;;;0.50;0.50;;;;;;;;;;4970870;28;20277;-68
2021/12/29 11:48:03;;;;;;;0.50;0.50;;;;;;;;;;4971363;28;20678;-68
2021/12/29 11:50:33;;;;;;;1.23;0.90;;;;;;;;;;4973068;28;20275;-68
2021/12/29 11:53:07;;;;;;;1.27;1.10;;;;;;;;;;4975294;28;20293;-69
2021/12/29 11:55:38;;;;;;;0.73;0.73;;;;;;;;;;4972848;28;20230;-69
2021/12/29 11:58:09;;;;;;;2.23;1.20;;;;;;;;;;4972836;28;20206;-68
2021/12/29 12:00:36;;;;;;;0.73;0.73;;;;;;;;;;4971528;28;20210;-69
2021/12/29 12:03:07;;;;;;;0.10;0.10;;;;;;;;;;4968448;28;20217;-68
2021/12/29 12:05:35;;;;;;;1.07;0.97;;;;;;;;;;4967422;28;20664;-70
2021/12/29 12:08:07;;;;;;;0.83;0.53;;;;;;;;;;4966640;28;20210;-69
2021/12/29 12:10:37;;;;;;;0.40;0.40;;;;;;;;;;4973949;28;20277;-70
2021/12/29 12:13:06;;;;;;;9.23;3.53;;;;;;;;;;4972152;28;20234;-70
2021/12/29 12:15:36;;;;;;;1.13;0.53;;;;;;;;;;4973213;28;20204;-68
2021/12/29 12:18:07;;;;;;;7.67;1.93;;;;;;;;;;4962245;28;20286;-69
2021/12/29 12:20:42;;;;;;;0.20;0.20;;;;;;;;;;4970784;28;20226;-69
2021/12/29 12:23:15;;;;;;;0.07;0.07;;;;;;;;;;4972854;28;20229;-67
2021/12/29 12:25:44;;;;;;;2.57;1.87;;;;;;;;;;4970822;28;20214;-68
2021/12/29 12:28:16;;;;;;;0.20;0.20;;;;;;;;;;4975991;28;20664;-69
2021/12/29 12:30:45;;;;;;;7.77;3.00;;;;;;;;;;4972884;28;20218;-68
2021/12/29 12:33:14;;;;;;;10.47;1.40;;;;;;;;;;4963017;28;20296;-70
2021/12/29 12:35:43;;;;;;;9.73;3.07;;;;;;;;;;4973275;28;20202;-68
2021/12/29 12:38:16;;;;;;;3.20;2.20;;;;;;;;;;4964733;28;20207;-69
2021/12/29 12:40:46;;;;;;;1.50;1.40;;;;;;;;;;4968441;28;20206;-69
2021/12/29 12:43:15;;;;;;;2.90;1.37;;;;;;;;;;4972043;28;20568;-69
2021/12/29 12:45:44;;;;;;;3.33;2.67;;;;;;;;;;4971419;28;20217;-70
2021/12/29 12:48:13;;;;;;;1.23;1.00;;;;;;;;;;4969397;28;20664;-69
2021/12/29 12:50:41;;;;;;;2.17;1.73;;;;;;;;;;4976347;28;20210;-72
2021/12/29 12:53:09;;;;;;;2.00;1.67;;;;;;;;;;4965274;28;20234;-70
2021/12/29 12:55:47;;;;;;;3.70;2.57;;;;;;;;;;4959633;28;20711;-69
2021/12/29 12:58:17;;;;;;;1.50;1.40;;;;;;;;;;4961625;28;20222;-70
2021/12/29 13:00:47;;;;;;;2.57;1.77;;;;;;;;;;4961666;28;20224;-70
2021/12/29 13:03:16;;;;;;;1.87;1.77;;;;;;;;;;4974136;28;20564;-71
2021/12/29 13:05:44;;;;;;;2.40;2.20;;;;;;;;;;4965272;28;20212;-72
2021/12/29 13:08:13;;;;;;;1.00;0.90;;;;;;;;;;4968842;28;20294;-75
2021/12/29 13:10:43;;;;;;;1.40;1.10;;;;;;;;;;4976274;28;20549;-75
2021/12/29 13:13:15;;;;;;;0.73;0.27;;;;;;;;;;4977038;28;20230;-73
2021/12/29 13:15:43;;;;;;;0.50;0.50;;;;;;;;;;4975499;28;20209;-72
2021/12/29 13:18:12;;;;;;;0.77;0.77;;;;;;;;;;4974115;28;20206;-74
2021/12/29 13:20:40;;;;;;;5.97;1.23;;;;;;;;;;4974758;28;20209;-72
2021/12/29 13:23:10;;;;;;;1.53;1.43;;;;;;;;;;4974556;28;20228;-73
2021/12/29 13:25:40;;;;;;;1.33;1.27;;;;;;;;;;4974424;28;20202;-73
2021/12/29 13:28:12;;;;;;;0.60;0.60;;;;;;;;;;4968742;28;20202;-72
2021/12/29 13:30:44;;;;;;;1.40;1.03;;;;;;;;;;4971066;28;20213;-74
2021/12/29 13:33:13;;;;;;;0.73;0.73;;;;;;;;;;4972432;28;20210;-73
2021/12/29 13:35:43;;;;;;;0.77;0.77;;;;;;;;;;4978403;28;20206;-74
2021/12/29 13:38:13;;;;;;;3.10;2.90;;;;;;;;;;4975648;28;20222;-70
2021/12/29 13:40:41;;;;;;;5.03;1.77;;;;;;;;;;4979548;28;20268;-73
2021/12/29 13:43:10;;;;;;;2.60;1.90;;;;;;;;;;4975749;28;20210;-70
2021/12/29 13:45:38;;;;;;;1.50;1.30;;;;;;;;;;4976435;28;20212;-72
2021/12/29 13:48:07;;;;;;;0.57;0.57;;;;;;;;;;4975443;28;20202;-73
2021/12/29 13:50:34;;;;;;;1.30;1.03;;;;;;;;;;4962697;28;20197;-76
2021/12/29 13:53:04;;;;;;;1.80;0.67;;;;;;;;;;4974298;28;20244;-69
2021/12/29 13:55:33;;;;;;;0.03;0.03;;;;;;;;;;4975883;28;20241;-73
2021/12/29 13:58:01;;;;;;;0.50;0.50;;;;;;;;;;4970316;28;20587;-74
2021/12/29 14:00:29;;;;;;;2.17;1.10;;;;;;;;;;4974430;28;20582;-73
2021/12/29 14:02:56;;;;;;;0.23;0.10;;;;;;;;;;4971541;28;20198;-72
2021/12/29 14:05:35;;;;;;;1.13;0.37;;;;;;;;;;4972483;28;20216;-72
2021/12/29 14:08:03;;;;;;;1.30;1.17;;;;;;;;;;4976127;28;20204;-73
2021/12/29 14:10:30;;;;;;;0.83;0.50;;;;;;;;;;4965938;28;20250;-75
2021/12/29 14:13:04;;;;;;;2.20;1.60;;;;;;;;;;4971141;28;20257;-73
2021/12/29 14:15:32;;;;;;;0.87;0.87;;;;;;;;;;4969144;28;20206;-73
2021/12/29 14:17:59;;;;;;;0.83;0.63;;;;;;;;;;4966668;28;20877;-75
2021/12/29 14:20:28;;;;;;;0.53;0.43;;;;;;;;;;4965581;28;20217;-71
2021/12/29 14:23:03;;;;;;;0.63;0.47;;;;;;;;;;4966848;28;20194;-75
2021/12/29 14:25:34;;;;;;;2.13;1.50;;;;;;;;;;4976611;28;20216;-71
2021/12/29 14:28:02;;;;;;;0.90;0.83;;;;;;;;;;4972483;28;20484;-78
2021/12/29 14:30:31;;;;;;;0.87;0.53;;;;;;;;;;4973703;28;20202;-72
2021/12/29 14:33:00;;;;;;;1.93;1.07;;;;;;;;;;4975452;28;20210;-72
2021/12/29 14:35:30;;;;;;;0.90;0.60;;;;;;;;;;4974010;28;20746;-71
2021/12/29 14:37:57;;;;;;;0.93;0.93;;;;;;;;;;4969919;28;20206;-70
2021/12/29 14:40:26;;;;;;;0.77;0.73;;;;;;;;;;4972796;28;20680;-72
2021/12/29 14:42:54;;;;;;;0.73;0.73;;;;;;;;;;4974442;28;20300;-71
2021/12/29 14:45:21;;;;;;;0.70;0.70;;;;;;;;;;4978100;28;20202;-70
2021/12/29 14:47:50;;;;;;;0.20;0.20;;;;;;;;;;4978726;28;20202;-71
2021/12/29 14:50:20;;;;;;;1.03;0.93;;;;;;;;;;4971169;28;20210;-71
2021/12/29 14:52:50;;;;;;;0.60;0.57;;;;;;;;;;4972048;28;20246;-70
2021/12/29 14:55:18;;;;;;;0.00;0.00;;;;;;;;;;4971389;28;20791;-70